createdAt,value
2022-11-21T00:00:32.769Z,100.00
2022-11-21T00:03:01.341Z,100.00
2022-11-21T00:05:29.386Z,100.00
2022-11-21T00:07:56.399Z,100.00
2022-11-21T00:10:24.656Z,100.00
2022-11-21T00:12:55.858Z,100.00
2022-11-21T00:15:24.030Z,100.00
2022-11-21T00:17:50.996Z,100.00
2022-11-21T00:20:18.724Z,100.00
2022-11-21T00:22:45.546Z,100.00
2022-11-21T00:25:12.589Z,100.00
2022-11-21T00:27:39.518Z,100.00
2022-11-21T00:30:07.849Z,100.00
2022-11-21T00:32:34.763Z,100.00
2022-11-21T00:35:01.655Z,100.00
2022-11-21T00:37:28.420Z,100.00
2022-11-21T00:39:54.967Z,100.00
2022-11-21T00:42:21.491Z,100.00
2022-11-21T00:44:48.118Z,100.00
2022-11-21T00:47:14.737Z,100.00
2022-11-21T00:49:41.317Z,100.00
2022-11-21T00:52:07.859Z,100.00
2022-11-21T00:54:34.428Z,100.00
2022-11-21T00:57:01.005Z,100.00
2022-11-21T00:59:27.652Z,100.00
2022-11-21T01:01:54.247Z,100.00
2022-11-21T01:04:20.886Z,100.00
2022-11-21T01:06:47.814Z,100.00
2022-11-21T01:09:14.325Z,100.00
2022-11-21T01:11:40.946Z,100.00
2022-11-21T01:14:07.453Z,100.00
2022-11-21T01:16:34.672Z,100.00
2022-11-21T01:19:01.576Z,100.00
2022-11-21T01:21:30.870Z,100.00
2022-11-21T01:24:00.331Z,100.00
2022-11-21T01:26:28.976Z,100.00
2022-11-21T01:28:57.113Z,100.00
2022-11-21T01:31:29.042Z,100.00
2022-11-21T01:33:57.683Z,100.00
2022-11-21T01:36:27.199Z,100.00
2022-11-21T01:38:56.029Z,100.00
2022-11-21T01:41:44.539Z,100.00
2022-11-21T01:44:13.965Z,100.00
2022-11-21T01:46:40.564Z,100.00
2022-11-21T01:49:11.236Z,100.00
2022-11-21T01:51:37.679Z,100.00
2022-11-21T01:54:13.290Z,100.00
2022-11-21T01:56:51.593Z,100.00
2022-11-21T01:59:26.284Z,100.00
2022-11-21T02:01:55.551Z,100.00
2022-11-21T02:04:24.861Z,100.00
2022-11-21T02:06:51.611Z,100.00
2022-11-21T02:09:19.119Z,100.00
2022-11-21T02:11:49.410Z,100.00
2022-11-21T02:14:16.043Z,100.00
2022-11-21T02:16:43.070Z,100.00
2022-11-21T02:19:25.226Z,100.00
2022-11-21T02:22:01.165Z,100.00
2022-11-21T02:24:34.939Z,100.00
2022-11-21T02:27:02.019Z,100.00
2022-11-21T02:29:28.657Z,100.00
2022-11-21T02:31:55.170Z,100.00
2022-11-21T02:34:21.720Z,100.00
2022-11-21T02:36:48.436Z,100.00
2022-11-21T02:39:37.176Z,100.00
2022-11-21T02:42:24.821Z,100.00
2022-11-21T02:44:51.304Z,100.00
2022-11-21T02:47:17.915Z,100.00
2022-11-21T02:50:09.689Z,100.00
2022-11-21T02:52:36.182Z,100.00
2022-11-21T02:55:02.718Z,100.00
2022-11-21T02:57:29.218Z,100.00
2022-11-21T02:59:55.764Z,100.00
2022-11-21T03:02:22.342Z,100.00
2022-11-21T03:04:48.981Z,100.00
2022-11-21T03:07:15.572Z,100.00
2022-11-21T03:09:42.221Z,100.00
2022-11-21T03:12:10.243Z,100.00
2022-11-21T03:14:37.065Z,100.00
2022-11-21T03:17:04.702Z,100.00
2022-11-21T03:19:31.482Z,100.00
2022-11-21T03:21:58.020Z,100.00
2022-11-21T03:24:24.655Z,100.00
2022-11-21T03:26:51.374Z,100.00
2022-11-21T03:29:17.969Z,100.00
2022-11-21T03:31:44.567Z,100.00
2022-11-21T03:34:11.248Z,100.00
2022-11-21T03:36:37.818Z,100.00
2022-11-21T03:39:04.876Z,100.00
2022-11-21T03:41:31.558Z,100.00
2022-11-21T03:44:03.820Z,100.00
2022-11-21T03:46:32.403Z,100.00
2022-11-21T03:48:59.199Z,100.00
2022-11-21T03:51:26.584Z,100.00
2022-11-21T03:53:53.161Z,100.00
2022-11-21T03:56:19.881Z,100.00
2022-11-21T03:58:46.651Z,100.00
2022-11-21T04:01:13.924Z,100.00
2022-11-21T04:03:42.567Z,100.00
2022-11-21T04:06:10.138Z,100.00
2022-11-21T04:08:36.751Z,100.00
2022-11-21T04:11:03.604Z,100.00
2022-11-21T04:13:30.141Z,100.00
2022-11-21T04:15:56.781Z,100.00
2022-11-21T04:18:23.350Z,100.00
2022-11-21T04:20:49.899Z,100.00
2022-11-21T04:23:16.424Z,100.00
2022-11-21T04:25:42.950Z,100.00
2022-11-21T04:28:13.475Z,100.00
2022-11-21T04:30:40.095Z,100.00
2022-11-21T04:33:06.929Z,100.00
2022-11-21T04:35:33.482Z,100.00
2022-11-21T04:38:00.080Z,100.00
2022-11-21T04:40:26.569Z,100.00
2022-11-21T04:42:53.067Z,100.00
2022-11-21T04:45:19.585Z,100.00
2022-11-21T04:47:47.412Z,100.00
2022-11-21T04:50:15.898Z,100.00
2022-11-21T04:52:42.911Z,100.00
2022-11-21T04:55:10.237Z,100.00
2022-11-21T04:57:36.784Z,100.00
2022-11-21T05:00:04.227Z,100.00
2022-11-21T05:02:30.650Z,100.00
2022-11-21T05:04:57.169Z,100.00
2022-11-21T05:07:23.859Z,100.00
2022-11-21T05:09:50.421Z,100.00
2022-11-21T05:12:35.477Z,100.00
2022-11-21T05:15:02.008Z,100.00
2022-11-21T05:17:29.549Z,100.00
2022-11-21T05:19:56.098Z,100.00
2022-11-21T05:22:22.676Z,100.00
2022-11-21T05:24:49.298Z,100.00
2022-11-21T05:27:15.854Z,100.00
2022-11-21T05:29:42.509Z,100.00
2022-11-21T05:32:09.058Z,100.00
2022-11-21T05:34:35.554Z,100.00
2022-11-21T05:37:02.118Z,100.00
2022-11-21T05:39:28.626Z,100.00
2022-11-21T05:41:58.493Z,100.00
2022-11-21T05:44:29.478Z,100.00
2022-11-21T05:46:56.221Z,100.00
2022-11-21T05:49:22.751Z,100.00
2022-11-21T05:51:49.322Z,100.00
2022-11-21T05:54:16.130Z,100.00
2022-11-21T05:56:42.755Z,100.00
2022-11-21T05:59:11.496Z,100.00
2022-11-21T06:01:57.221Z,100.00
2022-11-21T06:04:23.775Z,100.00
2022-11-21T06:06:50.379Z,100.00
2022-11-21T06:09:16.882Z,100.00
2022-11-21T06:11:43.487Z,100.00
2022-11-21T06:14:10.055Z,100.00
2022-11-21T06:16:36.656Z,100.00
2022-11-21T06:19:03.890Z,100.00
2022-11-21T06:21:30.560Z,100.00
2022-11-21T06:23:58.552Z,100.00
2022-11-21T06:26:26.883Z,100.00
2022-11-21T06:28:54.673Z,100.00
2022-11-21T06:31:23.751Z,100.00
2022-11-21T06:33:58.670Z,100.00
2022-11-21T06:36:25.784Z,100.00
2022-11-21T06:38:54.804Z,100.00
2022-11-21T06:41:26.996Z,100.00
2022-11-21T06:43:53.511Z,100.00
2022-11-21T06:46:20.138Z,100.00
2022-11-21T06:48:46.683Z,100.00
2022-11-21T06:51:24.572Z,100.00
2022-11-21T06:53:56.505Z,100.00
2022-11-21T06:56:24.757Z,100.00
2022-11-21T06:58:52.676Z,100.00
2022-11-21T07:01:19.302Z,100.00
2022-11-21T07:03:46.063Z,100.00
2022-11-21T07:06:12.605Z,100.00
2022-11-21T07:08:41.125Z,100.00
2022-11-21T07:11:24.641Z,100.00
2022-11-21T07:13:52.105Z,100.00
2022-11-21T07:16:19.861Z,100.00
2022-11-21T07:18:46.376Z,100.00
2022-11-21T07:21:13.116Z,100.00
2022-11-21T07:23:39.707Z,100.00
2022-11-21T07:26:08.603Z,100.00
2022-11-21T07:28:35.582Z,100.00
2022-11-21T07:31:05.938Z,100.00
2022-11-21T07:33:35.229Z,100.00
2022-11-21T07:36:01.801Z,100.00
2022-11-21T07:38:28.385Z,100.00
2022-11-21T07:40:58.159Z,100.00
2022-11-21T07:43:24.731Z,100.00
2022-11-21T07:45:51.275Z,100.00
2022-11-21T07:48:17.854Z,100.00
2022-11-21T07:50:44.435Z,100.00
2022-11-21T07:53:12.104Z,99.87
2022-11-21T07:55:40.876Z,100.00
2022-11-21T07:58:10.425Z,98.87
2022-11-21T08:00:39.731Z,99.39
2022-11-21T08:03:09.510Z,97.63
2022-11-21T08:05:41.175Z,97.96
2022-11-21T08:08:08.743Z,98.61
2022-11-21T08:10:45.911Z,97.02
2022-11-21T08:13:12.525Z,98.28
2022-11-21T08:15:39.812Z,99.60
2022-11-21T08:18:11.471Z,98.67
2022-11-21T08:20:38.368Z,97.47
2022-11-21T08:23:06.208Z,96.91
2022-11-21T08:25:34.246Z,97.29
2022-11-21T08:28:02.725Z,97.58
2022-11-21T08:30:29.926Z,99.07
2022-11-21T08:32:58.886Z,95.49
2022-11-21T08:35:26.750Z,94.47
2022-11-21T08:37:57.502Z,94.01
2022-11-21T08:40:25.539Z,94.30
2022-11-21T08:42:58.819Z,94.88
2022-11-21T08:45:26.132Z,93.59
2022-11-21T08:47:53.582Z,93.91
2022-11-21T08:50:20.102Z,94.61
2022-11-21T08:52:46.766Z,93.14
2022-11-21T08:55:13.326Z,93.86
2022-11-21T08:57:41.050Z,91.59
2022-11-21T09:00:10.076Z,91.71
2022-11-21T09:02:36.598Z,91.58
2022-11-21T09:05:03.156Z,90.22
2022-11-21T09:07:30.096Z,92.24
2022-11-21T09:09:56.661Z,88.92
2022-11-21T09:12:23.210Z,87.91
2022-11-21T09:15:08.251Z,87.93
2022-11-21T09:17:52.999Z,89.06
2022-11-21T09:20:19.584Z,89.01
2022-11-21T09:22:47.043Z,89.57
2022-11-21T09:25:13.741Z,88.61
2022-11-21T09:27:40.314Z,88.41
2022-11-21T09:30:07.568Z,87.54
2022-11-21T09:32:34.145Z,87.80
2022-11-21T09:35:00.683Z,88.51
2022-11-21T09:37:27.324Z,86.88
2022-11-21T09:39:53.883Z,88.56
2022-11-21T09:43:04.486Z,88.75
2022-11-21T09:46:09.356Z,87.45
2022-11-21T09:48:47.981Z,85.52
2022-11-21T09:51:19.347Z,84.52
2022-11-21T09:53:56.399Z,85.93
2022-11-21T09:56:23.970Z,84.86
2022-11-21T09:59:19.777Z,84.03
2022-11-21T10:01:47.177Z,85.15
2022-11-21T10:04:13.771Z,84.47
2022-11-21T10:07:03.164Z,84.79
2022-11-21T10:09:41.801Z,83.99
2022-11-21T10:12:39.894Z,85.01
2022-11-21T10:15:45.428Z,82.54
2022-11-21T10:18:33.614Z,84.21
2022-11-21T10:21:15.749Z,84.20
2022-11-21T10:24:04.489Z,82.50
2022-11-21T10:27:15.399Z,82.36
2022-11-21T10:29:54.917Z,75.96
2022-11-21T10:32:30.188Z,72.54
2022-11-21T10:35:01.931Z,72.55
2022-11-21T10:37:37.157Z,71.70
2022-11-21T10:40:16.274Z,70.99
2022-11-21T10:42:55.567Z,71.45
2022-11-21T10:45:23.081Z,69.26
2022-11-21T10:47:51.728Z,68.13
2022-11-21T10:50:50.348Z,71.50
2022-11-21T10:53:41.300Z,68.97
2022-11-21T10:56:13.563Z,68.00
2022-11-21T10:58:46.354Z,70.16
2022-11-21T11:01:34.199Z,68.25
2022-11-21T11:04:26.628Z,69.04
2022-11-21T11:06:53.714Z,66.89
2022-11-21T11:09:28.626Z,68.18
2022-11-21T11:12:23.955Z,67.97
2022-11-21T11:14:53.105Z,67.42
2022-11-21T11:17:39.958Z,66.22
2022-11-21T11:20:45.092Z,67.17
2022-11-21T11:23:20.533Z,66.24
2022-11-21T11:25:49.885Z,63.19
2022-11-21T11:28:19.288Z,67.65
2022-11-21T11:30:48.040Z,62.21
2022-11-21T11:33:39.022Z,63.23
2022-11-21T11:36:14.192Z,63.00
2022-11-21T11:38:52.410Z,64.07
2022-11-21T11:41:51.685Z,65.87
2022-11-21T11:44:51.170Z,64.28
2022-11-21T11:47:30.977Z,62.17
2022-11-21T11:50:19.834Z,59.60
2022-11-21T11:52:52.320Z,59.27
2022-11-21T11:55:41.873Z,59.45
2022-11-21T11:58:19.279Z,59.80
2022-11-21T12:00:59.051Z,60.05
2022-11-21T12:03:47.217Z,60.11
2022-11-21T12:06:21.860Z,61.23
2022-11-21T12:08:55.179Z,60.74
2022-11-21T12:12:07.029Z,62.55
2022-11-21T12:14:55.725Z,65.18
2022-11-21T12:17:39.261Z,63.22
2022-11-21T12:20:15.916Z,61.87
2022-11-21T12:22:43.972Z,60.41
2022-11-21T12:25:12.661Z,58.10
2022-11-21T12:27:42.259Z,59.20
2022-11-21T12:30:39.616Z,60.00
2022-11-21T12:33:17.199Z,61.28
2022-11-21T12:35:49.522Z,60.56
2022-11-21T12:38:44.759Z,60.27
2022-11-21T12:41:46.704Z,61.51
2022-11-21T12:44:22.502Z,60.27
2022-11-21T12:47:01.578Z,59.54
2022-11-21T12:50:00.752Z,59.99
2022-11-21T12:52:52.180Z,60.00
2022-11-21T12:55:35.151Z,57.93
2022-11-21T12:58:11.312Z,59.10
2022-11-21T13:00:56.754Z,58.31
2022-11-21T13:03:35.693Z,58.54
2022-11-21T13:06:04.930Z,58.57
2022-11-21T13:08:35.851Z,59.04
2022-11-21T13:11:58.718Z,57.84
2022-11-21T13:14:41.236Z,59.49
2022-11-21T13:17:26.195Z,56.44
2022-11-21T13:20:17.131Z,58.07
2022-11-21T13:22:47.207Z,58.45
2022-11-21T13:25:40.253Z,57.55
2022-11-21T13:28:18.915Z,59.23
2022-11-21T13:30:48.854Z,59.08
2022-11-21T13:33:39.918Z,59.79
2022-11-21T13:36:07.806Z,58.80
2022-11-21T13:38:54.324Z,57.78
2022-11-21T13:41:54.934Z,56.98
2022-11-21T13:44:33.666Z,59.18
2022-11-21T13:47:01.372Z,65.57
2022-11-21T13:49:42.143Z,71.04
2022-11-21T13:52:23.976Z,72.47
2022-11-21T13:55:16.688Z,71.97
2022-11-21T13:58:10.402Z,72.51
2022-11-21T14:00:38.172Z,75.77
2022-11-21T14:03:23.441Z,78.02
2022-11-21T14:06:08.574Z,77.23
2022-11-21T14:08:35.676Z,79.05
2022-11-21T14:11:30.404Z,79.88
2022-11-21T14:13:57.019Z,81.00
2022-11-21T14:16:43.198Z,82.71
2022-11-21T14:19:19.049Z,82.40
2022-11-21T14:21:47.411Z,81.46
2022-11-21T14:24:18.287Z,80.85
2022-11-21T14:26:49.198Z,81.99
2022-11-21T14:29:37.757Z,82.74
2022-11-21T14:32:04.396Z,82.72
2022-11-21T14:34:33.139Z,82.72
2022-11-21T14:37:03.750Z,81.78
2022-11-21T14:39:39.892Z,81.04
2022-11-21T14:42:15.310Z,82.64
2022-11-21T14:44:42.400Z,82.59
2022-11-21T14:47:23.409Z,83.83
2022-11-21T14:49:54.915Z,83.74
2022-11-21T14:52:27.527Z,82.09
2022-11-21T14:55:29.143Z,82.68
2022-11-21T14:57:54.454Z,84.42
2022-11-21T15:00:57.547Z,84.50
2022-11-21T15:03:19.926Z,83.58
2022-11-21T15:06:01.846Z,83.90
2022-11-21T15:11:20.825Z,86.42
2022-11-21T15:14:14.453Z,86.50
2022-11-21T15:16:38.140Z,85.49
2022-11-21T15:19:11.255Z,86.37
2022-11-21T15:21:46.520Z,85.01
2022-11-21T15:24:18.067Z,86.03
2022-11-21T15:26:44.721Z,84.31
2022-11-21T15:29:22.946Z,85.51
2022-11-21T15:32:06.495Z,85.10
2022-11-21T15:34:35.844Z,85.39
2022-11-21T15:37:17.656Z,85.33
2022-11-21T15:39:53.048Z,87.27
2022-11-21T15:42:31.843Z,86.50
2022-11-21T15:45:00.878Z,87.73
2022-11-21T15:47:28.557Z,87.29
2022-11-21T15:49:55.180Z,87.26
2022-11-21T15:52:22.097Z,88.75
2022-11-21T15:54:48.710Z,89.06
2022-11-21T15:57:17.134Z,88.67
2022-11-21T15:59:44.779Z,87.57
2022-11-21T16:02:13.437Z,88.52
2022-11-21T16:04:41.218Z,89.17
2022-11-21T16:07:07.844Z,90.67
2022-11-21T16:09:36.069Z,91.46
2022-11-21T16:12:02.651Z,89.94
2022-11-21T16:14:29.163Z,90.21
2022-11-21T16:16:55.750Z,88.16
2022-11-21T16:19:22.350Z,87.60
2022-11-21T16:21:48.907Z,88.32
2022-11-21T16:24:15.498Z,89.08
2022-11-21T16:26:42.053Z,88.19
2022-11-21T16:29:11.053Z,87.78
2022-11-21T16:31:37.963Z,88.10
2022-11-21T16:34:04.523Z,88.44
2022-11-21T16:36:32.326Z,86.73
2022-11-21T16:39:07.685Z,87.87
2022-11-21T16:41:35.921Z,90.07
2022-11-21T16:44:03.018Z,89.78
2022-11-21T16:46:29.622Z,87.82
2022-11-21T16:49:00.880Z,89.54
2022-11-21T16:51:28.475Z,90.23
2022-11-21T16:53:57.148Z,91.72
2022-11-21T16:56:23.939Z,92.48
2022-11-21T16:58:50.520Z,92.08
2022-11-21T17:01:22.773Z,90.39
2022-11-21T17:03:50.200Z,90.79
2022-11-21T17:06:19.526Z,91.02
2022-11-21T17:08:47.131Z,89.49
2022-11-21T17:11:22.408Z,91.27
2022-11-21T17:13:50.608Z,90.40
2022-11-21T17:16:19.183Z,90.73
2022-11-21T17:18:46.324Z,91.68
2022-11-21T17:21:15.821Z,87.13
2022-11-21T17:23:44.814Z,85.77
2022-11-21T17:26:16.971Z,84.04
2022-11-21T17:28:45.881Z,83.19
2022-11-21T17:31:15.252Z,85.40
2022-11-21T17:33:43.150Z,87.46
2022-11-21T17:36:14.447Z,88.19
2022-11-21T17:38:42.574Z,85.02
2022-11-21T17:41:11.980Z,84.31
2022-11-21T17:43:39.250Z,85.66
2022-11-21T17:46:10.203Z,83.78
2022-11-21T17:48:38.340Z,84.32
2022-11-21T17:51:12.693Z,84.89
2022-11-21T17:53:44.366Z,85.85
2022-11-21T17:56:13.922Z,85.35
2022-11-21T17:58:41.000Z,84.34
2022-11-21T18:01:11.184Z,85.87
2022-11-21T18:03:37.849Z,84.47
2022-11-21T18:06:12.559Z,85.57
2022-11-21T18:08:40.932Z,83.77
2022-11-21T18:11:08.978Z,85.45
2022-11-21T18:13:36.611Z,85.11
2022-11-21T18:16:06.399Z,84.81
2022-11-21T18:18:34.680Z,83.60
2022-11-21T18:21:05.940Z,85.13
2022-11-21T18:23:32.787Z,86.31
2022-11-21T18:26:04.816Z,88.05
2022-11-21T18:28:32.232Z,86.58
2022-11-21T18:31:07.872Z,86.07
2022-11-21T18:33:35.911Z,86.18
2022-11-21T18:36:04.358Z,87.85
2022-11-21T18:38:48.150Z,87.92
2022-11-21T18:41:19.273Z,89.23
2022-11-21T18:43:51.303Z,88.83
2022-11-21T18:46:18.738Z,89.52
2022-11-21T18:49:02.081Z,88.45
2022-11-21T18:51:32.423Z,89.39
2022-11-21T18:54:00.390Z,87.95
2022-11-21T18:56:27.127Z,86.05
2022-11-21T18:58:58.284Z,88.50
2022-11-21T19:01:29.736Z,86.23
2022-11-21T19:03:56.813Z,87.14
2022-11-21T19:06:25.032Z,87.33
2022-11-21T19:08:55.977Z,86.33
2022-11-21T19:11:24.676Z,87.63
2022-11-21T19:13:52.587Z,91.21
2022-11-21T19:16:21.582Z,93.55
2022-11-21T19:19:11.792Z,94.33
2022-11-21T19:21:39.718Z,94.03
2022-11-21T19:24:16.081Z,94.26
2022-11-21T19:26:43.139Z,95.24
2022-11-21T19:29:10.628Z,94.50
2022-11-21T19:31:44.122Z,95.79
2022-11-21T19:34:12.996Z,97.42
2022-11-21T19:36:39.639Z,96.52
2022-11-21T19:39:06.348Z,98.99
2022-11-21T19:41:32.955Z,99.54
2022-11-21T19:44:00.629Z,100.00
2022-11-21T19:46:32.279Z,100.00
2022-11-21T19:48:59.653Z,100.00
2022-11-21T19:51:33.285Z,100.00
2022-11-21T19:54:02.566Z,100.00
2022-11-21T19:56:29.231Z,100.00
2022-11-21T19:58:56.514Z,100.00
2022-11-21T20:01:28.033Z,100.00
2022-11-21T20:03:57.375Z,100.00
2022-11-21T20:06:28.447Z,100.00
2022-11-21T20:08:57.334Z,99.64
2022-11-21T20:11:26.184Z,97.78
2022-11-21T20:13:53.129Z,97.50
2022-11-21T20:16:26.912Z,100.00
2022-11-21T20:18:57.790Z,100.00
2022-11-21T20:21:24.877Z,100.00
2022-11-21T20:23:51.900Z,100.00
2022-11-21T20:26:20.876Z,99.60
2022-11-21T20:28:48.748Z,100.00
2022-11-21T20:31:19.588Z,100.00
2022-11-21T20:36:35.201Z,100.00
2022-11-21T20:39:05.231Z,100.00
2022-11-21T20:41:34.243Z,100.00
2022-11-21T20:44:46.636Z,100.00
2022-11-21T20:46:50.730Z,96.77
2022-11-21T20:49:17.621Z,95.31
2022-11-21T20:54:31.243Z,96.16
2022-11-21T20:56:58.048Z,95.88
2022-11-21T20:59:26.345Z,96.14
2022-11-21T21:01:53.130Z,95.04
2022-11-21T21:04:19.823Z,97.10
2022-11-21T21:06:46.410Z,96.80
2022-11-21T21:09:12.961Z,95.68
2022-11-21T21:11:54.910Z,94.81
2022-11-21T21:14:22.299Z,94.93
2022-11-21T21:16:48.943Z,97.57
2022-11-21T21:19:16.193Z,99.82
2022-11-21T21:21:42.777Z,100.00
2022-11-21T21:24:11.216Z,99.06
2022-11-21T21:26:43.058Z,98.47
2022-11-21T21:29:12.594Z,97.67
2022-11-21T21:31:40.227Z,96.94
2022-11-21T21:34:10.053Z,99.68
2022-11-21T21:36:36.783Z,100.00
2022-11-21T21:39:04.047Z,100.00
2022-11-21T21:41:31.583Z,100.00
2022-11-21T21:43:58.399Z,100.00
2022-11-21T21:46:27.396Z,100.00
2022-11-21T21:48:56.263Z,100.00
2022-11-21T21:51:28.334Z,100.00
2022-11-21T21:53:56.222Z,100.00
2022-11-21T21:56:24.737Z,100.00
2022-11-21T21:58:51.418Z,100.00
2022-11-21T22:01:20.723Z,100.00
2022-11-21T22:03:48.300Z,100.00
2022-11-21T22:06:17.369Z,100.00
2022-11-21T22:08:45.467Z,100.00
2022-11-21T22:11:21.725Z,100.00
2022-11-21T22:13:52.527Z,100.00
2022-11-21T22:16:19.087Z,100.00
2022-11-21T22:18:45.743Z,100.00
2022-11-21T22:21:17.170Z,100.00
2022-11-21T22:24:02.833Z,100.00
2022-11-21T22:26:31.962Z,100.00
2022-11-21T22:28:58.510Z,100.00
2022-11-21T22:31:25.086Z,100.00
2022-11-21T22:33:51.666Z,100.00
2022-11-21T22:36:18.992Z,100.00
2022-11-21T22:38:46.174Z,100.00
2022-11-21T22:41:21.960Z,100.00
2022-11-21T22:43:53.228Z,100.00
2022-11-21T22:46:20.586Z,100.00
2022-11-21T22:48:47.442Z,100.00
2022-11-21T22:51:15.014Z,100.00
2022-11-21T22:53:41.702Z,100.00
2022-11-21T22:56:10.619Z,100.00
2022-11-21T22:58:39.583Z,100.00
2022-11-21T23:01:10.903Z,100.00
2022-11-21T23:03:37.885Z,100.00
2022-11-21T23:06:06.009Z,100.00
2022-11-21T23:08:33.250Z,100.00
2022-11-21T23:11:06.484Z,100.00
2022-11-21T23:13:34.069Z,100.00
2022-11-21T23:16:00.884Z,100.00
2022-11-21T23:18:27.480Z,100.00
2022-11-21T23:20:54.041Z,100.00
2022-11-21T23:23:20.888Z,100.00
2022-11-21T23:25:47.614Z,100.00
2022-11-21T23:28:14.213Z,100.00
2022-11-21T23:30:41.102Z,100.00
2022-11-21T23:33:07.609Z,100.00
2022-11-21T23:35:34.090Z,99.58
2022-11-21T23:38:00.649Z,100.00
2022-11-21T23:40:27.230Z,100.00
2022-11-21T23:42:53.855Z,100.00
2022-11-21T23:45:20.353Z,100.00
2022-11-21T23:47:47.183Z,100.00
2022-11-21T23:50:13.875Z,100.00
2022-11-21T23:52:40.357Z,100.00
2022-11-21T23:55:07.238Z,100.00
2022-11-21T23:57:33.957Z,100.00
